Time;durP1;ratioP1;P1;durP2;ratioP2;P2;SDS_P1;SDS_P2;PMS_P1;PMS_P2;Temp;Humidity;BMP_temperature;BMP_pressure;BME280_temperature;BME280_humidity;BME280_pressure;Samples;Min_cycle;Max_cycle;Signal;HPM_P1;HPM_P2
2023/08/21 00:00:42;;;;;;;5.78;4.65;;;;;;;;;;4949840;28;20199;-69
2023/08/21 00:03:09;;;;;;;7.75;5.03;;;;;;;;;;4949676;28;20207;-67
2023/08/21 00:05:37;;;;;;;5.68;4.78;;;;;;;;;;4949072;28;20208;-67
2023/08/21 00:08:05;;;;;;;6.18;5.07;;;;;;;;;;4949520;28;20893;-67
2023/08/21 00:10:32;;;;;;;9.23;5.43;;;;;;;;;;4949653;28;20211;-67
2023/08/21 00:12:59;;;;;;;6.88;4.82;;;;;;;;;;4949344;28;20653;-66
2023/08/21 00:15:26;;;;;;;6.57;5.00;;;;;;;;;;4949715;28;20226;-67
2023/08/21 00:17:53;;;;;;;8.30;5.28;;;;;;;;;;4949253;28;20233;-67
2023/08/21 00:20:21;;;;;;;6.43;5.40;;;;;;;;;;4949171;28;20211;-67
2023/08/21 00:22:50;;;;;;;10.90;5.32;;;;;;;;;;4949459;28;20222;-67
2023/08/21 00:25:17;;;;;;;7.28;5.50;;;;;;;;;;4949323;28;20207;-67
2023/08/21 00:27:44;;;;;;;14.13;5.13;;;;;;;;;;4948826;28;20222;-67
2023/08/21 00:30:14;;;;;;;8.15;4.97;;;;;;;;;;4949297;28;20211;-67
2023/08/21 00:32:41;;;;;;;14.65;5.13;;;;;;;;;;4949046;28;20242;-69
2023/08/21 00:35:08;;;;;;;9.27;5.35;;;;;;;;;;4949439;28;20207;-69
2023/08/21 00:37:35;;;;;;;16.30;6.18;;;;;;;;;;4948923;28;20203;-67
2023/08/21 00:40:04;;;;;;;11.77;5.25;;;;;;;;;;4948803;28;20218;-67
2023/08/21 00:42:31;;;;;;;8.75;5.25;;;;;;;;;;4949069;28;20386;-67
2023/08/21 00:44:58;;;;;;;8.75;5.40;;;;;;;;;;4949592;28;20204;-67
2023/08/21 00:47:25;;;;;;;6.32;5.38;;;;;;;;;;4948837;28;20200;-67
2023/08/21 00:49:52;;;;;;;12.23;5.50;;;;;;;;;;4948673;29;20210;-67
2023/08/21 00:52:19;;;;;;;5.68;5.13;;;;;;;;;;4949199;28;20237;-67
2023/08/21 00:54:47;;;;;;;8.45;5.38;;;;;;;;;;4948422;28;20218;-67
2023/08/21 00:57:15;;;;;;;8.70;5.28;;;;;;;;;;4949015;28;20231;-67
2023/08/21 00:59:42;;;;;;;6.13;5.32;;;;;;;;;;4946238;28;20211;-67
2023/08/21 01:02:09;;;;;;;12.75;5.40;;;;;;;;;;4946128;28;20309;-67
2023/08/21 01:04:36;;;;;;;6.22;5.35;;;;;;;;;;4935462;28;20223;-67
2023/08/21 01:07:09;;;;;;;8.65;5.72;;;;;;;;;;4946779;28;20897;-68
2023/08/21 01:09:41;;;;;;;7.55;5.88;;;;;;;;;;4947558;28;20297;-69
2023/08/21 01:12:11;;;;;;;8.82;5.97;;;;;;;;;;4948427;28;20309;-70
2023/08/21 01:14:42;;;;;;;6.78;5.68;;;;;;;;;;4948924;29;20203;-69
2023/08/21 01:17:12;;;;;;;6.30;5.70;;;;;;;;;;4948678;28;20235;-69
2023/08/21 01:19:42;;;;;;;8.02;5.75;;;;;;;;;;4948393;29;20263;-67
2023/08/21 01:22:09;;;;;;;6.28;5.72;;;;;;;;;;4948448;28;20230;-67
2023/08/21 01:24:37;;;;;;;7.00;6.30;;;;;;;;;;4948597;28;20567;-67
2023/08/21 01:27:04;;;;;;;9.13;6.20;;;;;;;;;;4948001;28;20654;-67
2023/08/21 01:29:32;;;;;;;6.18;5.70;;;;;;;;;;4947874;28;20686;-67
2023/08/21 01:32:02;;;;;;;8.10;5.15;;;;;;;;;;4947606;28;20207;-67
2023/08/21 01:34:32;;;;;;;7.10;6.38;;;;;;;;;;4941640;29;20211;-67
2023/08/21 01:37:00;;;;;;;7.10;6.40;;;;;;;;;;4947673;28;20293;-67
2023/08/21 01:39:27;;;;;;;7.25;6.53;;;;;;;;;;4948252;28;20681;-67
2023/08/21 01:41:56;;;;;;;7.15;6.43;;;;;;;;;;4947583;28;20218;-67
2023/08/21 01:44:24;;;;;;;6.50;6.00;;;;;;;;;;4947727;28;20360;-67
2023/08/21 01:46:51;;;;;;;8.77;5.88;;;;;;;;;;4947657;28;20207;-67
2023/08/21 01:49:19;;;;;;;9.52;6.40;;;;;;;;;;4947672;28;20223;-67
2023/08/21 01:51:46;;;;;;;7.53;6.78;;;;;;;;;;4947420;28;20219;-67
2023/08/21 01:54:13;;;;;;;12.45;6.63;;;;;;;;;;4948253;28;20219;-67
2023/08/21 01:56:40;;;;;;;14.43;7.07;;;;;;;;;;4947825;28;20222;-67
2023/08/21 01:59:09;;;;;;;7.55;6.72;;;;;;;;;;4947460;28;20218;-66
2023/08/21 02:01:36;;;;;;;7.80;6.25;;;;;;;;;;4947651;28;20210;-68
2023/08/21 02:04:03;;;;;;;8.15;6.25;;;;;;;;;;4947464;28;20724;-68
2023/08/21 02:06:30;;;;;;;7.68;6.50;;;;;;;;;;4947801;28;20199;-68
2023/08/21 02:08:57;;;;;;;8.20;6.75;;;;;;;;;;4947591;28;20207;-68
2023/08/21 02:11:24;;;;;;;11.80;7.25;;;;;;;;;;4947443;28;20210;-68
2023/08/21 02:13:51;;;;;;;7.95;7.13;;;;;;;;;;4943259;29;20219;-68
2023/08/21 02:16:20;;;;;;;8.75;6.50;;;;;;;;;;4947366;28;20341;-68
2023/08/21 02:18:47;;;;;;;6.75;6.00;;;;;;;;;;4947404;28;20258;-68
2023/08/21 02:21:14;;;;;;;7.70;6.32;;;;;;;;;;4947139;28;20211;-68
2023/08/21 02:23:41;;;;;;;7.88;6.97;;;;;;;;;;4947589;28;20222;-68
2023/08/21 02:26:08;;;;;;;8.93;6.68;;;;;;;;;;4947568;28;20219;-68
2023/08/21 02:28:35;;;;;;;6.65;6.05;;;;;;;;;;4947051;28;20211;-67
2023/08/21 02:31:02;;;;;;;8.88;7.15;;;;;;;;;;4946271;28;20203;-68
2023/08/21 02:33:30;;;;;;;10.02;6.53;;;;;;;;;;4947515;28;20215;-68
2023/08/21 02:35:57;;;;;;;13.60;6.22;;;;;;;;;;4947208;28;20206;-68
2023/08/21 02:38:24;;;;;;;7.05;6.00;;;;;;;;;;4947062;28;20218;-69
2023/08/21 02:40:51;;;;;;;7.45;6.53;;;;;;;;;;4947170;28;20673;-67
2023/08/21 02:43:18;;;;;;;10.50;6.97;;;;;;;;;;4950096;28;20195;-67
2023/08/21 02:45:45;;;;;;;9.13;6.38;;;;;;;;;;4951587;28;20299;-67
2023/08/21 02:48:12;;;;;;;9.73;6.55;;;;;;;;;;4951035;28;20218;-68
2023/08/21 02:50:41;;;;;;;6.68;6.13;;;;;;;;;;4950685;28;20203;-67
2023/08/21 02:53:08;;;;;;;8.77;6.82;;;;;;;;;;4951264;28;20297;-68
2023/08/21 02:55:35;;;;;;;8.65;6.15;;;;;;;;;;4951253;28;20223;-68
2023/08/21 02:58:02;;;;;;;8.60;6.07;;;;;;;;;;4951343;28;20246;-68
2023/08/21 03:00:29;;;;;;;8.05;6.75;;;;;;;;;;4950730;28;20834;-68
2023/08/21 03:02:56;;;;;;;6.95;6.35;;;;;;;;;;4951158;28;20306;-68
2023/08/21 03:05:23;;;;;;;6.93;6.38;;;;;;;;;;4951091;28;20211;-68
2023/08/21 03:07:52;;;;;;;6.50;5.95;;;;;;;;;;4950542;28;20230;-68
2023/08/21 03:10:19;;;;;;;7.07;6.25;;;;;;;;;;4947280;29;20705;-68
2023/08/21 03:12:46;;;;;;;9.57;7.00;;;;;;;;;;4951040;28;20207;-67
2023/08/21 03:15:13;;;;;;;6.32;5.72;;;;;;;;;;4951419;29;20210;-67
2023/08/21 03:17:41;;;;;;;8.18;6.38;;;;;;;;;;4950203;28;20708;-67
2023/08/21 03:20:08;;;;;;;7.80;6.88;;;;;;;;;;4950437;28;20242;-67
2023/08/21 03:22:35;;;;;;;8.65;6.38;;;;;;;;;;4949966;28;20203;-67
2023/08/21 03:25:04;;;;;;;9.30;7.15;;;;;;;;;;4950808;28;20211;-67
2023/08/21 03:27:31;;;;;;;7.57;6.53;;;;;;;;;;4950631;28;20207;-68
2023/08/21 03:30:00;;;;;;;6.88;6.28;;;;;;;;;;4950110;28;20207;-68
2023/08/21 03:32:27;;;;;;;7.80;6.70;;;;;;;;;;4950806;28;20253;-68
2023/08/21 03:34:56;;;;;;;8.10;6.28;;;;;;;;;;4950969;28;20428;-67
2023/08/21 03:37:23;;;;;;;7.18;6.53;;;;;;;;;;4950676;28;20235;-67
2023/08/21 03:39:50;;;;;;;7.82;6.75;;;;;;;;;;4949642;29;20200;-68
2023/08/21 03:42:18;;;;;;;11.13;7.18;;;;;;;;;;4949966;28;20214;-67
2023/08/21 03:44:48;;;;;;;9.15;6.65;;;;;;;;;;4950453;28;20203;-67
2023/08/21 03:47:15;;;;;;;7.43;6.60;;;;;;;;;;4950176;28;20207;-67
2023/08/21 03:49:42;;;;;;;8.00;7.20;;;;;;;;;;4950392;28;20208;-67
2023/08/21 03:52:09;;;;;;;7.75;6.70;;;;;;;;;;4950652;28;20207;-66
2023/08/21 03:54:36;;;;;;;7.68;6.45;;;;;;;;;;4949756;28;20219;-67
2023/08/21 03:57:03;;;;;;;8.90;6.40;;;;;;;;;;4949722;29;20587;-67
2023/08/21 03:59:32;;;;;;;7.55;6.80;;;;;;;;;;4950010;28;20377;-67
2023/08/21 04:01:59;;;;;;;6.97;6.32;;;;;;;;;;4949813;28;20203;-67
2023/08/21 04:04:26;;;;;;;10.73;6.90;;;;;;;;;;4949835;28;20680;-67
2023/08/21 04:06:53;;;;;;;12.18;6.72;;;;;;;;;;4950047;28;20209;-67
2023/08/21 04:09:20;;;;;;;7.93;7.13;;;;;;;;;;4950261;28;20215;-67
2023/08/21 04:11:47;;;;;;;7.85;6.88;;;;;;;;;;4950297;28;20294;-67
2023/08/21 04:14:14;;;;;;;8.05;7.18;;;;;;;;;;4950570;28;20203;-67
2023/08/21 04:16:42;;;;;;;8.40;6.80;;;;;;;;;;4950188;28;20234;-67
2023/08/21 04:19:09;;;;;;;11.85;6.28;;;;;;;;;;4950119;28;20249;-67
2023/08/21 04:21:36;;;;;;;7.35;6.65;;;;;;;;;;4950249;28;20370;-67
2023/08/21 04:24:03;;;;;;;6.97;6.28;;;;;;;;;;4950796;29;20631;-67
2023/08/21 04:26:30;;;;;;;10.43;7.00;;;;;;;;;;4949944;28;20218;-67
2023/08/21 04:28:57;;;;;;;11.20;7.53;;;;;;;;;;4949822;28;20294;-67
2023/08/21 04:31:25;;;;;;;9.98;6.95;;;;;;;;;;4950213;28;20215;-67
2023/08/21 04:33:53;;;;;;;7.80;7.10;;;;;;;;;;4950545;28;20674;-68
2023/08/21 04:36:20;;;;;;;7.03;6.20;;;;;;;;;;4950430;28;20299;-67
2023/08/21 04:38:47;;;;;;;9.00;6.32;;;;;;;;;;4949805;28;20246;-68
2023/08/21 04:41:14;;;;;;;10.65;6.78;;;;;;;;;;4945270;28;20376;-67
2023/08/21 04:43:41;;;;;;;7.28;6.55;;;;;;;;;;4948083;28;20636;-67
2023/08/21 04:46:08;;;;;;;8.50;7.13;;;;;;;;;;4950476;28;20206;-67
2023/08/21 04:48:35;;;;;;;7.88;6.45;;;;;;;;;;4942848;28;20218;-68
2023/08/21 04:51:04;;;;;;;12.75;7.15;;;;;;;;;;4946630;28;20211;-67
2023/08/21 04:53:31;;;;;;;8.25;7.40;;;;;;;;;;4948947;28;20693;-68
2023/08/21 04:56:00;;;;;;;7.35;6.43;;;;;;;;;;4948407;28;20310;-68
2023/08/21 04:58:27;;;;;;;7.90;6.80;;;;;;;;;;4947763;29;20281;-67
2023/08/21 05:00:54;;;;;;;7.60;6.80;;;;;;;;;;4949620;28;20199;-67
2023/08/21 05:03:21;;;;;;;8.85;6.60;;;;;;;;;;4949972;28;20203;-67
2023/08/21 05:05:53;;;;;;;9.38;6.57;;;;;;;;;;4949234;28;20214;-68
2023/08/21 05:08:22;;;;;;;10.15;7.05;;;;;;;;;;4949906;28;20199;-67
2023/08/21 05:10:49;;;;;;;7.20;6.60;;;;;;;;;;4948066;28;20250;-67
2023/08/21 05:13:17;;;;;;;8.73;7.05;;;;;;;;;;4949766;28;20214;-68
2023/08/21 05:15:44;;;;;;;7.30;6.60;;;;;;;;;;4949460;28;20203;-67
2023/08/21 05:18:11;;;;;;;8.02;7.00;;;;;;;;;;4949749;28;20239;-68
2023/08/21 05:20:40;;;;;;;13.80;6.75;;;;;;;;;;4949680;28;20582;-67
2023/08/21 05:23:07;;;;;;;11.88;6.15;;;;;;;;;;4948022;28;20885;-68
2023/08/21 05:25:35;;;;;;;6.47;5.95;;;;;;;;;;4947697;28;20210;-68
2023/08/21 05:28:02;;;;;;;8.25;7.22;;;;;;;;;;4949302;28;20295;-68
2023/08/21 05:30:29;;;;;;;8.82;6.30;;;;;;;;;;4945162;28;20673;-68
2023/08/21 05:32:56;;;;;;;15.70;7.30;;;;;;;;;;4946968;28;20210;-67
2023/08/21 05:35:23;;;;;;;6.82;6.20;;;;;;;;;;4944382;28;20218;-68
2023/08/21 05:37:50;;;;;;;6.90;5.82;;;;;;;;;;4948730;28;20235;-67
2023/08/21 05:40:18;;;;;;;11.75;6.40;;;;;;;;;;4942919;28;20222;-68
2023/08/21 05:42:46;;;;;;;8.18;6.60;;;;;;;;;;4947179;28;20207;-68
2023/08/21 05:45:13;;;;;;;9.35;6.63;;;;;;;;;;4945803;28;20215;-68
2023/08/21 05:47:40;;;;;;;5.88;5.30;;;;;;;;;;4948973;28;20203;-68
2023/08/21 05:50:08;;;;;;;7.18;6.00;;;;;;;;;;4946320;28;20207;-68
2023/08/21 05:52:35;;;;;;;9.77;6.68;;;;;;;;;;4946985;28;20657;-68
2023/08/21 05:55:02;;;;;;;6.82;6.22;;;;;;;;;;4946635;28;20591;-67
2023/08/21 05:57:29;;;;;;;6.90;6.35;;;;;;;;;;4947951;28;20757;-68
2023/08/21 05:59:58;;;;;;;7.40;6.38;;;;;;;;;;4948033;28;20883;-68
2023/08/21 06:02:25;;;;;;;6.25;5.63;;;;;;;;;;4947892;28;20211;-68
2023/08/21 06:04:52;;;;;;;9.38;6.38;;;;;;;;;;4948068;28;20257;-68
2023/08/21 06:07:19;;;;;;;8.70;5.88;;;;;;;;;;4946902;28;20219;-67
2023/08/21 06:09:46;;;;;;;7.43;6.20;;;;;;;;;;4948181;28;20207;-67
2023/08/21 06:12:13;;;;;;;10.35;6.05;;;;;;;;;;4947744;29;20211;-64
2023/08/21 06:14:40;;;;;;;6.55;5.85;;;;;;;;;;4947985;28;20218;-66
2023/08/21 06:17:10;;;;;;;7.13;6.53;;;;;;;;;;4947601;28;20230;-65
2023/08/21 06:19:37;;;;;;;12.65;6.32;;;;;;;;;;4947377;28;20234;-66
2023/08/21 06:22:04;;;;;;;8.57;5.97;;;;;;;;;;4947736;28;20239;-66
2023/08/21 06:24:31;;;;;;;9.15;6.25;;;;;;;;;;4945599;28;20623;-66
2023/08/21 06:26:58;;;;;;;7.38;6.57;;;;;;;;;;4948328;28;20218;-66
2023/08/21 06:29:26;;;;;;;7.53;6.18;;;;;;;;;;4947104;28;20203;-65
2023/08/21 06:31:53;;;;;;;8.02;6.55;;;;;;;;;;4954081;28;20728;-65
2023/08/21 06:34:21;;;;;;;6.47;5.97;;;;;;;;;;4957696;28;20796;-65
2023/08/21 06:36:48;;;;;;;6.63;6.13;;;;;;;;;;4956776;28;20623;-66
2023/08/21 06:39:15;;;;;;;7.20;6.40;;;;;;;;;;4958207;28;20265;-66
2023/08/21 06:41:42;;;;;;;6.93;6.05;;;;;;;;;;4957278;28;20203;-65
2023/08/21 06:44:09;;;;;;;7.93;7.18;;;;;;;;;;4955462;28;20226;-65
2023/08/21 06:46:36;;;;;;;7.13;6.55;;;;;;;;;;4958333;28;20210;-65
2023/08/21 06:49:04;;;;;;;7.18;6.30;;;;;;;;;;4957312;28;20838;-65
2023/08/21 06:51:32;;;;;;;6.80;6.10;;;;;;;;;;4957400;28;20215;-65
2023/08/21 06:53:59;;;;;;;7.55;6.53;;;;;;;;;;4954179;28;20203;-65
2023/08/21 06:56:26;;;;;;;6.93;6.32;;;;;;;;;;4957472;28;20775;-65
2023/08/21 06:58:55;;;;;;;6.25;5.85;;;;;;;;;;4955684;28;20633;-65
2023/08/21 07:01:22;;;;;;;10.57;6.03;;;;;;;;;;4956006;28;20203;-65
2023/08/21 07:03:49;;;;;;;8.45;6.22;;;;;;;;;;4955888;28;20206;-65
2023/08/21 07:06:16;;;;;;;7.28;5.53;;;;;;;;;;4957778;28;20210;-65
2023/08/21 07:08:44;;;;;;;6.47;5.88;;;;;;;;;;4952510;28;20209;-65
2023/08/21 07:11:12;;;;;;;8.63;6.82;;;;;;;;;;4957054;28;20249;-66
2023/08/21 07:13:39;;;;;;;6.93;6.32;;;;;;;;;;4956842;28;20202;-65
2023/08/21 07:16:06;;;;;;;6.22;5.72;;;;;;;;;;4957478;28;20211;-65
2023/08/21 07:18:33;;;;;;;6.95;5.75;;;;;;;;;;4955708;28;20244;-66
2023/08/21 07:21:00;;;;;;;7.25;6.68;;;;;;;;;;4955998;28;20733;-65
2023/08/21 07:23:28;;;;;;;6.47;5.95;;;;;;;;;;4956540;28;20254;-66
2023/08/21 07:25:56;;;;;;;6.97;6.38;;;;;;;;;;4954554;28;20673;-65
2023/08/21 07:28:23;;;;;;;7.75;5.93;;;;;;;;;;4954063;28;20203;-65
2023/08/21 07:30:55;;;;;;;6.13;5.63;;;;;;;;;;4963625;28;20213;-65
2023/08/21 07:33:22;;;;;;;5.88;5.47;;;;;;;;;;4931832;29;20216;-65
2023/08/21 07:35:57;;;;;;;5.90;5.40;;;;;;;;;;4931442;29;20227;-65
2023/08/21 07:38:25;;;;;;;6.60;5.82;;;;;;;;;;4931642;29;20231;-65
2023/08/21 07:40:52;;;;;;;6.80;5.93;;;;;;;;;;4945719;29;20207;-65
2023/08/21 07:43:20;;;;;;;8.63;5.35;;;;;;;;;;4932301;28;20215;-66
2023/08/21 07:45:47;;;;;;;6.20;5.63;;;;;;;;;;4931691;29;20329;-65
2023/08/21 07:48:14;;;;;;;7.68;6.05;;;;;;;;;;4945179;29;20211;-66
2023/08/21 07:50:41;;;;;;;7.28;5.80;;;;;;;;;;4950704;28;20674;-65
2023/08/21 07:53:08;;;;;;;6.00;5.50;;;;;;;;;;4950062;28;20282;-65
2023/08/21 07:55:35;;;;;;;6.43;5.78;;;;;;;;;;4949908;28;20218;-65
2023/08/21 07:58:04;;;;;;;8.45;5.72;;;;;;;;;;4950433;28;20543;-65
2023/08/21 08:00:32;;;;;;;7.15;6.45;;;;;;;;;;4949603;28;20218;-66
2023/08/21 08:02:59;;;;;;;6.20;5.80;;;;;;;;;;4950150;28;20207;-67
2023/08/21 08:05:26;;;;;;;7.10;5.88;;;;;;;;;;4949912;28;20400;-66
2023/08/21 08:07:53;;;;;;;5.55;5.22;;;;;;;;;;4950296;28;20677;-66
2023/08/21 08:10:20;;;;;;;6.22;5.70;;;;;;;;;;4949970;28;20274;-66
2023/08/21 08:12:47;;;;;;;7.13;6.47;;;;;;;;;;4950249;28;20206;-65
2023/08/21 08:15:14;;;;;;;7.22;5.43;;;;;;;;;;4948968;28;20697;-66
2023/08/21 08:17:43;;;;;;;6.30;5.88;;;;;;;;;;4949740;28;20269;-66
2023/08/21 08:20:10;;;;;;;7.70;6.45;;;;;;;;;;4950222;28;20258;-65
2023/08/21 08:22:37;;;;;;;6.38;5.78;;;;;;;;;;4949582;28;20211;-66
2023/08/21 08:25:05;;;;;;;5.72;5.32;;;;;;;;;;4949955;28;20227;-67
2023/08/21 08:27:33;;;;;;;6.35;5.75;;;;;;;;;;4949824;28;20290;-66
2023/08/21 08:30:00;;;;;;;6.45;5.82;;;;;;;;;;4949770;28;20309;-67
2023/08/21 08:32:27;;;;;;;6.03;5.63;;;;;;;;;;4948914;28;20547;-65
2023/08/21 08:34:55;;;;;;;5.82;5.32;;;;;;;;;;4949824;28;20317;-64
2023/08/21 08:37:22;;;;;;;6.00;5.50;;;;;;;;;;4949840;28;20219;-60
2023/08/21 08:39:50;;;;;;;6.10;5.70;;;;;;;;;;4948781;28;20239;-72
2023/08/21 08:42:17;;;;;;;6.50;5.95;;;;;;;;;;4949658;28;20219;-65
2023/08/21 08:44:44;;;;;;;6.15;5.70;;;;;;;;;;4948711;28;20245;-66
2023/08/21 08:47:12;;;;;;;5.45;5.07;;;;;;;;;;4949512;28;20215;-67
2023/08/21 08:49:39;;;;;;;7.38;5.90;;;;;;;;;;4949831;28;20215;-66
2023/08/21 08:52:08;;;;;;;6.43;5.80;;;;;;;;;;4949832;28;20253;-67
2023/08/21 08:54:38;;;;;;;5.97;5.47;;;;;;;;;;4948775;28;20641;-72
2023/08/21 08:57:05;;;;;;;7.72;5.72;;;;;;;;;;4947660;28;20222;-66
2023/08/21 08:59:32;;;;;;;5.93;5.45;;;;;;;;;;4946106;28;21021;-69
2023/08/21 09:01:59;;;;;;;6.20;5.68;;;;;;;;;;4946412;29;20219;-69
2023/08/21 09:04:26;;;;;;;5.72;5.30;;;;;;;;;;4947060;28;20207;-68
2023/08/21 09:06:53;;;;;;;6.38;5.88;;;;;;;;;;4948415;28;20222;-72
2023/08/21 09:09:22;;;;;;;5.68;5.35;;;;;;;;;;4947820;28;20214;-62
2023/08/21 09:11:50;;;;;;;8.77;5.70;;;;;;;;;;4944881;29;20215;-64
2023/08/21 09:14:17;;;;;;;6.05;5.60;;;;;;;;;;4948830;28;20210;-64
2023/08/21 09:17:00;;;;;;;6.40;5.97;;;;;;;;;;4945451;28;20230;-64
2023/08/21 09:19:27;;;;;;;5.93;5.38;;;;;;;;;;4940619;28;20619;-64
2023/08/21 09:21:54;;;;;;;5.97;5.45;;;;;;;;;;4945926;28;20226;-64
2023/08/21 09:24:23;;;;;;;6.38;5.88;;;;;;;;;;4947278;28;20226;-64
2023/08/21 09:26:50;;;;;;;6.90;5.47;;;;;;;;;;4946970;28;20221;-64
2023/08/21 09:29:17;;;;;;;5.97;5.43;;;;;;;;;;4948618;29;20218;-65
2023/08/21 09:31:45;;;;;;;5.70;5.30;;;;;;;;;;4949057;28;20257;-64
2023/08/21 09:34:13;;;;;;;5.50;5.10;;;;;;;;;;4948793;28;20214;-64
2023/08/21 09:36:40;;;;;;;6.45;5.80;;;;;;;;;;4948402;28;20219;-64
2023/08/21 09:39:07;;;;;;;9.23;6.15;;;;;;;;;;4946071;28;20304;-64
2023/08/21 09:41:35;;;;;;;5.90;5.50;;;;;;;;;;4947872;28;20258;-65
2023/08/21 09:44:03;;;;;;;6.20;5.75;;;;;;;;;;4933781;28;20219;-64
2023/08/21 09:46:31;;;;;;;6.22;5.63;;;;;;;;;;4942588;29;20265;-65
2023/08/21 09:48:58;;;;;;;5.30;4.97;;;;;;;;;;4940935;29;20229;-65
2023/08/21 09:51:25;;;;;;;5.35;4.82;;;;;;;;;;4946664;28;20210;-65
2023/08/21 09:53:52;;;;;;;5.97;5.68;;;;;;;;;;4947536;28;20214;-64
2023/08/21 09:56:19;;;;;;;5.80;5.30;;;;;;;;;;4946218;28;20676;-65
2023/08/21 09:58:49;;;;;;;5.47;5.18;;;;;;;;;;4944866;28;20660;-64
2023/08/21 10:01:17;;;;;;;5.40;5.10;;;;;;;;;;4947077;28;20586;-65
2023/08/21 10:03:47;;;;;;;6.28;5.40;;;;;;;;;;4946094;28;20207;-65
2023/08/21 10:06:17;;;;;;;6.22;5.13;;;;;;;;;;4946311;28;20218;-65
2023/08/21 10:08:47;;;;;;;6.03;5.63;;;;;;;;;;4946597;28;20693;-65
2023/08/21 10:11:14;;;;;;;6.30;4.50;;;;;;;;;;4946423;28;20776;-65
2023/08/21 10:13:42;;;;;;;5.80;5.30;;;;;;;;;;4946122;28;20210;-65
2023/08/21 10:16:11;;;;;;;5.72;5.32;;;;;;;;;;4945763;28;20240;-65
2023/08/21 10:18:38;;;;;;;5.78;5.45;;;;;;;;;;4945460;28;20246;-65
2023/08/21 10:21:12;;;;;;;5.50;5.10;;;;;;;;;;4943692;28;20214;-65
2023/08/21 10:23:40;;;;;;;5.88;5.38;;;;;;;;;;4945689;28;20296;-65
2023/08/21 10:26:08;;;;;;;5.63;5.22;;;;;;;;;;4946427;28;20236;-65
2023/08/21 10:28:50;;;;;;;5.60;5.10;;;;;;;;;;4946318;29;20680;-65
2023/08/21 10:31:32;;;;;;;5.72;5.18;;;;;;;;;;4946596;28;20206;-65
2023/08/21 10:34:00;;;;;;;5.68;5.30;;;;;;;;;;4944444;29;20577;-65
2023/08/21 10:36:40;;;;;;;5.28;4.93;;;;;;;;;;4947382;28;20207;-65
2023/08/21 10:39:13;;;;;;;4.30;4.00;;;;;;;;;;4945963;28;20230;-65
2023/08/21 10:41:40;;;;;;;3.95;3.85;;;;;;;;;;4946954;28;20214;-65
2023/08/21 10:44:08;;;;;;;4.20;4.00;;;;;;;;;;4944240;28;20214;-65
2023/08/21 10:46:50;;;;;;;4.10;3.90;;;;;;;;;;4946224;29;20805;-65
2023/08/21 10:49:18;;;;;;;4.53;4.10;;;;;;;;;;4947286;28;20206;-65
2023/08/21 10:51:45;;;;;;;4.30;4.00;;;;;;;;;;4947361;28;20217;-65
2023/08/21 10:54:13;;;;;;;8.73;4.00;;;;;;;;;;4946938;28;20214;-65
2023/08/21 10:56:40;;;;;;;4.53;4.13;;;;;;;;;;4946941;28;20203;-65
2023/08/21 10:59:07;;;;;;;3.80;3.60;;;;;;;;;;4946494;28;20719;-65
2023/08/21 11:01:44;;;;;;;3.50;3.30;;;;;;;;;;4946962;28;20218;-66
2023/08/21 11:04:11;;;;;;;3.42;3.33;;;;;;;;;;4949182;28;20229;-66
2023/08/21 11:06:40;;;;;;;3.20;3.00;;;;;;;;;;4952045;28;20248;-65
2023/08/21 11:09:07;;;;;;;3.10;2.85;;;;;;;;;;4951093;28;20198;-65
2023/08/21 11:11:36;;;;;;;4.72;3.33;;;;;;;;;;4954693;28;20704;-66
2023/08/21 11:14:04;;;;;;;3.78;3.30;;;;;;;;;;4952581;28;20268;-65
2023/08/21 11:16:31;;;;;;;3.47;3.25;;;;;;;;;;4950180;28;20230;-65
2023/08/21 11:18:58;;;;;;;3.45;3.22;;;;;;;;;;4952632;28;20241;-65
2023/08/21 11:21:25;;;;;;;3.13;2.97;;;;;;;;;;4950777;28;20222;-66
2023/08/21 11:23:53;;;;;;;3.30;3.10;;;;;;;;;;4949900;28;20294;-65
2023/08/21 11:26:20;;;;;;;3.05;3.00;;;;;;;;;;4949425;29;20230;-65
2023/08/21 11:28:47;;;;;;;2.70;2.65;;;;;;;;;;4950440;28;20218;-65
2023/08/21 11:31:14;;;;;;;2.67;2.47;;;;;;;;;;4950653;28;20578;-65
2023/08/21 11:33:42;;;;;;;1.98;1.80;;;;;;;;;;4950648;28;20634;-65
2023/08/21 11:36:09;;;;;;;2.13;2.05;;;;;;;;;;4954372;28;20205;-65
2023/08/21 11:38:36;;;;;;;3.38;2.35;;;;;;;;;;4960012;28;20210;-66
2023/08/21 11:41:07;;;;;;;4.93;2.63;;;;;;;;;;4950740;28;20218;-65
2023/08/21 11:43:37;;;;;;;2.42;2.22;;;;;;;;;;4949387;28;20206;-64
2023/08/21 11:46:05;;;;;;;4.45;2.33;;;;;;;;;;4949136;29;20213;-65
2023/08/21 11:48:32;;;;;;;2.60;2.40;;;;;;;;;;4950195;28;20202;-65
2023/08/21 11:50:59;;;;;;;2.47;2.38;;;;;;;;;;4950717;28;20206;-65
2023/08/21 11:53:36;;;;;;;2.70;2.60;;;;;;;;;;4950313;28;20297;-65
2023/08/21 11:56:04;;;;;;;2.10;2.00;;;;;;;;;;4951217;28;20664;-65
2023/08/21 11:58:31;;;;;;;2.33;1.60;;;;;;;;;;4950423;28;20210;-66
2023/08/21 12:01:04;;;;;;;2.30;2.10;;;;;;;;;;4949917;28;20223;-66
2023/08/21 12:03:31;;;;;;;1.52;1.52;;;;;;;;;;4950079;28;20633;-64
2023/08/21 12:05:58;;;;;;;1.98;1.85;;;;;;;;;;4945260;28;20297;-64
2023/08/21 12:08:25;;;;;;;1.70;1.60;;;;;;;;;;4953888;28;20378;-64
2023/08/21 12:10:52;;;;;;;1.42;1.42;;;;;;;;;;4949636;28;20210;-71
2023/08/21 12:13:21;;;;;;;2.25;2.03;;;;;;;;;;4949141;28;20210;-69
2023/08/21 12:15:48;;;;;;;1.90;1.80;;;;;;;;;;4951422;28;20210;-69
2023/08/21 12:18:15;;;;;;;1.77;1.70;;;;;;;;;;4952567;28;20246;-69
2023/08/21 12:20:42;;;;;;;2.28;1.60;;;;;;;;;;4959787;28;20230;-69
2023/08/21 12:23:09;;;;;;;1.58;1.58;;;;;;;;;;4947143;29;20225;-69
2023/08/21 12:25:36;;;;;;;2.67;1.50;;;;;;;;;;4948346;28;20223;-69
2023/08/21 12:28:03;;;;;;;1.40;1.40;;;;;;;;;;4948650;28;20225;-70
2023/08/21 12:30:31;;;;;;;1.63;1.23;;;;;;;;;;4947921;28;20217;-65
2023/08/21 12:32:58;;;;;;;1.27;1.27;;;;;;;;;;4949295;28;20217;-65
2023/08/21 12:35:25;;;;;;;1.33;1.33;;;;;;;;;;4947682;29;20207;-66
2023/08/21 12:37:55;;;;;;;1.15;1.08;;;;;;;;;;4947028;28;20217;-65
2023/08/21 12:40:22;;;;;;;1.50;1.38;;;;;;;;;;4948881;28;20233;-65
2023/08/21 12:42:50;;;;;;;1.10;1.10;;;;;;;;;;4947702;28;20214;-65
2023/08/21 12:45:17;;;;;;;1.23;1.23;;;;;;;;;;4948520;29;20215;-66
2023/08/21 12:47:45;;;;;;;1.10;1.10;;;;;;;;;;4947654;28;20210;-66
2023/08/21 12:50:13;;;;;;;2.25;1.35;;;;;;;;;;4949553;28;20214;-65
2023/08/21 12:52:41;;;;;;;1.88;1.42;;;;;;;;;;4949207;28;20218;-65
2023/08/21 12:55:08;;;;;;;5.68;1.40;;;;;;;;;;4948695;28;20207;-65
2023/08/21 12:57:35;;;;;;;3.50;1.30;;;;;;;;;;4948399;28;20211;-65
2023/08/21 13:00:02;;;;;;;1.30;1.30;;;;;;;;;;4948474;28;20229;-65
2023/08/21 13:02:29;;;;;;;1.40;1.40;;;;;;;;;;4949000;28;20206;-66
2023/08/21 13:04:58;;;;;;;1.77;1.20;;;;;;;;;;4948683;28;20210;-65
2023/08/21 13:07:25;;;;;;;1.50;1.08;;;;;;;;;;4948270;28;20218;-65
2023/08/21 13:09:52;;;;;;;0.75;0.65;;;;;;;;;;4948398;28;20207;-65
2023/08/21 13:12:19;;;;;;;1.10;1.10;;;;;;;;;;4948800;28;20681;-65
2023/08/21 13:14:48;;;;;;;0.80;0.80;;;;;;;;;;4948592;28;20210;-66
2023/08/21 13:17:15;;;;;;;1.02;0.93;;;;;;;;;;4945996;28;20231;-65
2023/08/21 13:19:42;;;;;;;2.15;1.55;;;;;;;;;;4946708;28;20249;-65
2023/08/21 13:22:11;;;;;;;0.90;0.90;;;;;;;;;;4952663;28;20218;-66
2023/08/21 13:24:38;;;;;;;0.70;0.68;;;;;;;;;;4947934;28;20207;-66
2023/08/21 13:27:05;;;;;;;1.00;1.00;;;;;;;;;;4947038;28;20643;-65
2023/08/21 13:29:32;;;;;;;1.00;1.00;;;;;;;;;;4947730;28;20211;-65
2023/08/21 13:31:59;;;;;;;1.15;1.10;;;;;;;;;;4947987;28;20325;-65
2023/08/21 13:34:26;;;;;;;1.30;1.30;;;;;;;;;;4946606;28;20213;-66
2023/08/21 13:36:53;;;;;;;1.30;1.30;;;;;;;;;;4948304;28;20219;-65
2023/08/21 13:39:22;;;;;;;1.35;1.35;;;;;;;;;;4948115;28;20217;-66
2023/08/21 13:41:50;;;;;;;1.40;1.40;;;;;;;;;;4946678;28;20213;-65
2023/08/21 13:44:17;;;;;;;1.33;1.23;;;;;;;;;;4946831;29;20202;-65
2023/08/21 13:46:44;;;;;;;1.02;1.02;;;;;;;;;;4947382;28;20625;-65
2023/08/21 13:49:11;;;;;;;1.23;1.20;;;;;;;;;;4948313;28;20587;-66
2023/08/21 13:51:38;;;;;;;1.40;1.40;;;;;;;;;;4948656;28;20207;-66
2023/08/21 13:54:05;;;;;;;1.33;1.27;;;;;;;;;;4947990;28;20199;-65
2023/08/21 13:56:34;;;;;;;1.40;1.40;;;;;;;;;;4944874;28;20573;-65
2023/08/21 13:59:01;;;;;;;1.10;1.10;;;;;;;;;;4946811;28;20217;-65
2023/08/21 14:01:28;;;;;;;1.30;1.30;;;;;;;;;;4947884;28;20237;-65
2023/08/21 14:03:55;;;;;;;1.42;1.42;;;;;;;;;;4948317;28;20217;-66
2023/08/21 14:06:22;;;;;;;1.67;1.27;;;;;;;;;;4945507;28;20691;-63
2023/08/21 14:08:49;;;;;;;1.50;1.50;;;;;;;;;;4945399;28;20684;-64
2023/08/21 14:11:16;;;;;;;1.48;1.42;;;;;;;;;;4945622;28;20215;-66
2023/08/21 14:13:44;;;;;;;1.40;1.40;;;;;;;;;;4946839;28;20221;-64
2023/08/21 14:16:11;;;;;;;1.65;1.55;;;;;;;;;;4946504;28;20329;-65
2023/08/21 14:18:38;;;;;;;1.50;1.15;;;;;;;;;;4946625;28;20453;-65
2023/08/21 14:21:05;;;;;;;1.60;1.23;;;;;;;;;;4946779;28;20226;-65
2023/08/21 14:23:32;;;;;;;1.50;1.38;;;;;;;;;;4952054;28;20240;-65
2023/08/21 14:25:59;;;;;;;3.08;1.30;;;;;;;;;;4943726;28;20234;-65
2023/08/21 14:28:26;;;;;;;1.63;1.42;;;;;;;;;;4946434;28;20311;-65
2023/08/21 14:30:55;;;;;;;2.70;1.42;;;;;;;;;;4946937;28;20222;-65
2023/08/21 14:33:22;;;;;;;1.33;1.33;;;;;;;;;;4947212;28;20206;-65
2023/08/21 14:35:50;;;;;;;2.03;1.35;;;;;;;;;;4946994;28;20677;-65
2023/08/21 14:38:17;;;;;;;1.70;1.60;;;;;;;;;;4949161;28;20210;-65
2023/08/21 14:40:44;;;;;;;1.90;1.80;;;;;;;;;;4950644;28;20708;-64
2023/08/21 14:43:11;;;;;;;1.60;1.50;;;;;;;;;;4950367;28;20265;-65
2023/08/21 14:45:38;;;;;;;1.48;1.38;;;;;;;;;;4950662;28;20206;-65